KINS/INS METAR and TAF weather

Enter ICAO airport designator
Station Type Date Time Source
KINS METAR 2019/06/26 17:58 UTC NOAA

KINS 261758Z AUTO 11013G19KT 10SM CLR 31/00 A2988 RMK AO2 PK WND 12027/06 SLP066 T03070001 10307 20169 58003 $


Station Type Date Time Source
KINS Decoded METAR 2019/06/26 17:58 UTC NOAA

Indian Springs, Indian Springs Auxiliary AFLD Nellis AFB, NV, United States (KINS) 36-35N 115-40W
Jun 26, 2019 - 01:58 PM EDT / 2019.06.26 1758 UTC
Wind: from the ESE (110 degrees) at 15 MPH (13 KT) gusting to 22 MPH (19 KT):0
Visibility: 10 mile(s):0
Sky conditions: clear
Temperature: 87.3 F (30.7 C)
Dew Point: 32.2 F (0.1 C)
Relative Humidity: 13%
Pressure (altimeter): 29.88 in. Hg (1011 hPa)
Pressure tendency: 0.01 inches (0.3 hPa) lower than three hours ago
ob: KINS 261758Z AUTO 11013G19KT 10SM CLR 31/00 A2988 RMK AO2 PK WND 12027/06 SLP066 T03070001 10307 20169 58003
cycle: 18

Station Type Date Time Source
KINS TAF 2019/06/26 13:06 UTC NOAA

TAF KINS 261256Z 2613/2719 18010KT 9999 FEW110 SCT150 QNH2985INS
BECMG 2614/2615 16012KT 9999 FEW160 QNH2982INS
BECMG 2620/2621 22020G30KT 9999 FEW200 520009 520906 QNH2978INS
BECMG 2703/2704 16012KT 9999 FEW120 SCT160 QNH2990INS TX36/2621Z TN17/2613Z

Example: see airport list